Time;durP1;ratioP1;P1;durP2;ratioP2;P2;SDS_P1;SDS_P2;PMS_P1;PMS_P2;Temp;Humidity;BMP_temperature;BMP_pressure;BME280_temperature;BME280_humidity;BME280_pressure;Samples;Min_cycle;Max_cycle;Signal;HPM_P1;HPM_P2
2023/10/20 00:00:06;;;;;;;;;;;9.20;91.80;;;;;;5048539;28;19921;-68
2023/10/20 00:02:32;;;;;;;;;;;9.30;91.70;;;;;;5034917;28;19967;-68
2023/10/20 00:04:58;;;;;;;;;;;9.20;91.60;;;;;;5033516;28;19948;-67
2023/10/20 00:07:23;;;;;;;;;;;9.30;91.70;;;;;;5032935;28;20499;-67
2023/10/20 00:09:53;;;;;;;;;;;9.20;91.70;;;;;;5043018;28;19985;-67
2023/10/20 00:12:19;;;;;;;;;;;9.20;91.80;;;;;;5043958;28;19967;-67
2023/10/20 00:14:44;;;;;;;;;;;9.20;91.70;;;;;;5038396;28;19970;-68
2023/10/20 00:17:10;;;;;;;;;;;9.20;91.70;;;;;;5052725;28;20648;-68
2023/10/20 00:19:36;;;;;;;;;;;9.20;91.60;;;;;;5050088;28;19921;-67
2023/10/20 00:22:01;;;;;;;;;;;9.20;91.70;;;;;;5052588;28;20576;-68
2023/10/20 00:24:26;;;;;;;;;;;9.10;91.70;;;;;;5050465;28;19928;-67
2023/10/20 00:26:52;;;;;;;;;;;9.10;91.70;;;;;;5036546;28;20432;-68
2023/10/20 00:29:17;;;;;;;;;;;9.10;91.70;;;;;;5050998;28;20008;-67
2023/10/20 00:31:43;;;;;;;;;;;9.20;91.70;;;;;;5033208;28;19968;-68
2023/10/20 00:34:09;;;;;;;;;;;9.10;91.70;;;;;;5032528;28;20400;-67
2023/10/20 00:36:34;;;;;;;;;;;9.10;91.80;;;;;;5032799;28;19921;-68
2023/10/20 00:39:00;;;;;;;;;;;9.10;91.70;;;;;;5035788;28;20391;-67
2023/10/20 00:41:25;;;;;;;;;;;9.10;91.70;;;;;;5045769;28;19925;-67
2023/10/20 00:43:51;;;;;;;;;;;9.10;91.80;;;;;;5033260;28;19921;-67
2023/10/20 00:46:16;;;;;;;;;;;9.10;91.80;;;;;;5036927;28;19928;-67
2023/10/20 00:48:42;;;;;;;;;;;9.10;91.80;;;;;;5034822;28;20193;-67
2023/10/20 00:51:08;;;;;;;;;;;9.10;91.80;;;;;;5051426;28;19940;-67
2023/10/20 00:53:34;;;;;;;;;;;9.10;91.80;;;;;;5051693;28;19927;-67
2023/10/20 00:56:00;;;;;;;;;;;9.10;91.70;;;;;;5052056;28;19921;-67
2023/10/20 00:58:26;;;;;;;;;;;9.10;91.60;;;;;;5051564;28;19974;-68
2023/10/20 01:00:52;;;;;;;;;;;9.10;91.70;;;;;;5043158;28;19921;-68
2023/10/20 01:03:17;;;;;;;;;;;9.10;91.70;;;;;;5030949;28;20020;-68
2023/10/20 01:05:43;;;;;;;;;;;9.10;91.80;;;;;;5032281;28;19975;-68
2023/10/20 01:08:08;;;;;;;;;;;9.00;91.70;;;;;;5030999;28;19925;-68
2023/10/20 01:10:34;;;;;;;;;;;9.00;91.90;;;;;;5050618;28;20273;-68
2023/10/20 01:12:59;;;;;;;;;;;9.00;91.90;;;;;;5051543;28;19921;-68
2023/10/20 01:15:25;;;;;;;;;;;9.10;91.90;;;;;;5048780;28;19929;-68
2023/10/20 01:17:50;;;;;;;;;;;9.10;91.80;;;;;;5031899;28;19983;-68
2023/10/20 01:20:16;;;;;;;;;;;9.00;91.90;;;;;;5038167;28;19929;-68
2023/10/20 01:22:41;;;;;;;;;;;9.10;91.90;;;;;;5049239;28;20819;-68
2023/10/20 01:25:07;;;;;;;;;;;9.10;91.90;;;;;;5051017;28;19921;-68
2023/10/20 01:27:33;;;;;;;;;;;9.00;91.80;;;;;;5031883;28;19928;-68
2023/10/20 01:29:58;;;;;;;;;;;9.00;91.90;;;;;;5044750;28;20312;-68
2023/10/20 01:32:24;;;;;;;;;;;9.00;91.90;;;;;;5049532;28;20013;-68
2023/10/20 01:34:49;;;;;;;;;;;8.90;91.90;;;;;;5035619;28;19950;-66
2023/10/20 01:37:15;;;;;;;;;;;8.90;91.90;;;;;;5018200;28;19982;-66
2023/10/20 01:39:41;;;;;;;;;;;9.00;92.00;;;;;;5040763;28;19920;-68
2023/10/20 01:42:07;;;;;;;;;;;9.00;91.90;;;;;;5037860;28;19929;-66
2023/10/20 01:44:33;;;;;;;;;;;9.00;92.00;;;;;;5031303;28;19966;-67
2023/10/20 01:46:59;;;;;;;;;;;8.90;92.30;;;;;;5035666;28;19921;-67
2023/10/20 01:49:24;;;;;;;;;;;8.90;92.20;;;;;;5038677;28;19925;-67
2023/10/20 01:51:50;;;;;;;;;;;8.90;92.20;;;;;;5042033;28;19921;-66
2023/10/20 01:54:16;;;;;;;;;;;9.00;92.20;;;;;;5031028;28;20336;-66
2023/10/20 01:56:41;;;;;;;;;;;9.00;92.20;;;;;;5048536;28;20054;-67
2023/10/20 01:59:07;;;;;;;;;;;8.90;92.20;;;;;;5050405;28;19977;-67
2023/10/20 02:01:33;;;;;;;;;;;8.90;92.20;;;;;;5049308;28;20009;-66
2023/10/20 02:03:59;;;;;;;;;;;9.00;92.10;;;;;;5049417;28;19932;-67
2023/10/20 02:06:24;;;;;;;;;;;8.90;92.10;;;;;;5050210;28;20266;-66
2023/10/20 02:08:50;;;;;;;;;;;8.90;92.20;;;;;;5047942;28;20357;-66
2023/10/20 02:11:15;;;;;;;;;;;8.80;92.30;;;;;;5032702;28;19924;-66
2023/10/20 02:13:42;;;;;;;;;;;8.90;92.30;;;;;;5049702;28;20012;-66
2023/10/20 02:16:08;;;;;;;;;;;8.80;92.20;;;;;;5050774;28;19924;-66
2023/10/20 02:18:34;;;;;;;;;;;8.90;92.30;;;;;;5042010;28;19932;-66
2023/10/20 02:21:03;;;;;;;;;;;8.90;92.20;;;;;;5050264;28;19927;-67
2023/10/20 02:23:31;;;;;;;;;;;8.80;92.30;;;;;;5030852;28;20555;-67
2023/10/20 02:25:58;;;;;;;;;;;8.90;92.30;;;;;;5030520;28;19921;-66
2023/10/20 02:28:23;;;;;;;;;;;8.90;92.30;;;;;;5046725;28;20459;-66
2023/10/20 02:30:49;;;;;;;;;;;8.80;92.40;;;;;;5049337;28;19921;-67
2023/10/20 02:33:14;;;;;;;;;;;8.90;92.30;;;;;;5046055;28;19921;-67
2023/10/20 02:35:40;;;;;;;;;;;8.90;92.40;;;;;;5034599;28;20320;-67
2023/10/20 02:38:05;;;;;;;;;;;8.90;92.40;;;;;;5030287;28;20292;-67
2023/10/20 02:40:31;;;;;;;;;;;8.90;92.40;;;;;;5030128;28;19925;-66
2023/10/20 02:42:56;;;;;;;;;;;8.90;92.30;;;;;;5032933;28;19932;-66
2023/10/20 02:45:22;;;;;;;;;;;8.80;92.50;;;;;;5046446;28;19921;-66
2023/10/20 02:47:50;;;;;;;;;;;8.90;92.60;;;;;;5049871;28;20376;-66
2023/10/20 02:50:17;;;;;;;;;;;8.90;92.50;;;;;;5049206;28;19921;-67
2023/10/20 02:52:43;;;;;;;;;;;8.80;92.60;;;;;;5040064;28;19928;-66
2023/10/20 02:55:08;;;;;;;;;;;8.80;92.60;;;;;;5029799;28;19921;-66
2023/10/20 02:57:36;;;;;;;;;;;8.80;92.70;;;;;;5032966;28;19952;-66
2023/10/20 03:00:10;;;;;;;;;;;8.80;92.60;;;;;;5029703;28;20354;-66
2023/10/20 03:02:36;;;;;;;;;;;8.80;92.70;;;;;;5041627;28;20011;-66
2023/10/20 03:05:02;;;;;;;;;;;8.80;92.70;;;;;;5049634;28;20474;-66
2023/10/20 03:07:27;;;;;;;;;;;8.80;92.70;;;;;;5043253;28;19925;-66
2023/10/20 03:09:53;;;;;;;;;;;8.80;92.60;;;;;;5029805;28;19921;-66
2023/10/20 03:12:19;;;;;;;;;;;8.80;92.60;;;;;;5048047;28;19921;-67
2023/10/20 03:14:45;;;;;;;;;;;8.90;92.60;;;;;;5049378;28;20439;-66
2023/10/20 03:17:11;;;;;;;;;;;8.90;92.70;;;;;;5049317;28;19921;-66
2023/10/20 03:19:37;;;;;;;;;;;8.80;92.70;;;;;;5041424;28;19924;-66
2023/10/20 03:22:02;;;;;;;;;;;8.80;92.70;;;;;;5036542;28;19967;-67
2023/10/20 03:24:28;;;;;;;;;;;8.80;92.80;;;;;;5049108;28;20007;-67
2023/10/20 03:26:54;;;;;;;;;;;8.80;92.60;;;;;;5049320;28;19921;-66
2023/10/20 03:29:19;;;;;;;;;;;8.70;92.80;;;;;;5040511;28;19927;-66
2023/10/20 03:31:45;;;;;;;;;;;8.80;92.90;;;;;;5048322;28;19920;-67
2023/10/20 03:34:10;;;;;;;;;;;8.80;92.80;;;;;;5037240;28;19928;-67
2023/10/20 03:36:36;;;;;;;;;;;8.70;92.90;;;;;;5011376;28;20380;-68
2023/10/20 03:39:01;;;;;;;;;;;8.70;92.80;;;;;;5035465;28;19920;-67
2023/10/20 03:41:29;;;;;;;;;;;8.70;92.80;;;;;;5040148;28;19925;-68
2023/10/20 03:43:54;;;;;;;;;;;8.70;92.70;;;;;;5032934;28;19974;-67
2023/10/20 03:46:20;;;;;;;;;;;8.70;92.70;;;;;;5029004;28;19925;-67
2023/10/20 03:48:45;;;;;;;;;;;8.80;92.60;;;;;;5038275;28;19929;-67
2023/10/20 03:51:12;;;;;;;;;;;8.70;92.80;;;;;;5049220;28;19926;-67
2023/10/20 03:53:50;;;;;;;;;;;8.70;92.90;;;;;;5039961;28;19921;-67
2023/10/20 03:56:18;;;;;;;;;;;8.60;93.00;;;;;;5028902;28;19956;-67
2023/10/20 03:58:46;;;;;;;;;;;8.70;93.00;;;;;;5031686;28;19925;-67
2023/10/20 04:01:11;;;;;;;;;;;8.70;93.00;;;;;;5040758;28;19921;-67
2023/10/20 04:03:38;;;;;;;;;;;8.70;93.00;;;;;;5041073;28;20293;-67
2023/10/20 04:06:11;;;;;;;;;;;8.70;93.00;;;;;;5041108;28;20035;-67
2023/10/20 04:08:37;;;;;;;;;;;8.80;93.10;;;;;;5042873;28;19924;-67
2023/10/20 04:11:03;;;;;;;;;;;8.70;93.10;;;;;;5047967;28;19934;-68
2023/10/20 04:13:29;;;;;;;;;;;8.70;93.00;;;;;;5048711;28;19995;-68
2023/10/20 04:15:54;;;;;;;;;;;8.70;93.00;;;;;;5049072;28;20266;-67
2023/10/20 04:18:20;;;;;;;;;;;8.70;93.10;;;;;;5045993;28;19928;-67
2023/10/20 04:20:48;;;;;;;;;;;8.70;93.00;;;;;;5043404;28;19928;-67
2023/10/20 04:23:14;;;;;;;;;;;8.60;93.10;;;;;;5047129;28;19925;-67
2023/10/20 04:25:39;;;;;;;;;;;8.60;93.00;;;;;;5028884;28;20343;-67
2023/10/20 05:02:58;;;;;;;;;;;8.60;93.10;;;;;;5046390;28;19943;-67
2023/10/20 05:07:51;;;;;;;;;;;8.50;92.80;;;;;;5036331;28;19920;-68
2023/10/20 05:10:17;;;;;;;;;;;8.50;92.70;;;;;;5020857;28;19932;-67
2023/10/20 05:12:43;;;;;;;;;;;8.50;92.70;;;;;;5039477;28;20296;-67
2023/10/20 05:15:12;;;;;;;;;;;8.40;92.70;;;;;;5049539;28;19950;-67
2023/10/20 05:17:37;;;;;;;;;;;8.50;92.90;;;;;;5051409;28;19926;-67
2023/10/20 05:20:06;;;;;;;;;;;8.50;92.90;;;;;;5047053;28;19928;-67
2023/10/20 05:22:32;;;;;;;;;;;8.50;92.80;;;;;;5049850;28;19979;-67
2023/10/20 05:24:57;;;;;;;;;;;8.50;92.80;;;;;;5048634;28;20293;-67
2023/10/20 05:27:24;;;;;;;;;;;8.50;92.80;;;;;;5050526;28;19924;-67
2023/10/20 05:29:49;;;;;;;;;;;8.50;92.80;;;;;;5045551;28;19925;-67
2023/10/20 05:32:15;;;;;;;;;;;8.50;92.70;;;;;;5049228;28;19920;-67
2023/10/20 05:34:41;;;;;;;;;;;8.50;92.80;;;;;;5046831;28;19943;-67
2023/10/20 05:37:06;;;;;;;;;;;8.50;92.70;;;;;;5043777;28;19925;-67
2023/10/20 05:39:32;;;;;;;;;;;8.40;92.70;;;;;;5042200;28;20008;-68
2023/10/20 05:41:57;;;;;;;;;;;8.40;92.80;;;;;;5042781;28;20566;-68
2023/10/20 05:44:23;;;;;;;;;;;8.40;92.80;;;;;;5043649;28;20451;-68
2023/10/20 05:46:50;;;;;;;;;;;8.50;92.80;;;;;;5038545;28;19928;-68
2023/10/20 05:49:15;;;;;;;;;;;8.50;92.80;;;;;;5030785;28;19921;-68
2023/10/20 05:51:41;;;;;;;;;;;8.50;92.60;;;;;;5023129;28;20411;-68
2023/10/20 05:54:07;;;;;;;;;;;8.50;92.60;;;;;;5047500;28;19978;-69
2023/10/20 05:56:32;;;;;;;;;;;8.50;92.70;;;;;;5040994;28;19920;-67
2023/10/20 05:58:58;;;;;;;;;;;8.40;92.60;;;;;;5050160;28;19944;-67
2023/10/20 06:01:24;;;;;;;;;;;8.40;92.70;;;;;;5044853;28;20396;-67
2023/10/20 06:03:49;;;;;;;;;;;8.50;92.60;;;;;;5047753;28;20003;-68
2023/10/20 06:06:15;;;;;;;;;;;8.50;92.60;;;;;;5043475;28;19925;-67
2023/10/20 06:08:40;;;;;;;;;;;8.40;92.50;;;;;;5033468;28;19997;-68
2023/10/20 06:11:06;;;;;;;;;;;8.40;92.40;;;;;;5042427;28;19975;-68
2023/10/20 06:13:32;;;;;;;;;;;8.50;92.60;;;;;;5045428;28;19931;-67
2023/10/20 06:16:04;;;;;;;;;;;8.40;92.60;;;;;;5043910;28;19920;-67
2023/10/20 06:18:30;;;;;;;;;;;8.40;92.50;;;;;;5041895;28;19952;-67
2023/10/20 06:20:55;;;;;;;;;;;8.50;92.60;;;;;;5048486;28;19994;-68
2023/10/20 06:23:21;;;;;;;;;;;8.50;92.40;;;;;;5031503;28;19928;-67
2023/10/20 06:25:46;;;;;;;;;;;8.40;92.50;;;;;;5048418;28;19932;-68
2023/10/20 06:28:12;;;;;;;;;;;8.50;92.50;;;;;;5036060;28;20266;-68
2023/10/20 06:30:43;;;;;;;;;;;8.40;92.60;;;;;;5040374;28;19921;-67
2023/10/20 06:33:16;;;;;;;;;;;8.40;92.60;;;;;;5039383;28;20328;-68
2023/10/20 06:35:51;;;;;;;;;;;8.50;92.60;;;;;;5042383;28;20008;-68
2023/10/20 06:38:45;;;;;;;;;;;8.50;92.60;;;;;;5040275;28;19928;-68
2023/10/20 06:41:06;;;;;;;;;;;8.40;92.60;;;;;;5049605;28;19956;-68
2023/10/20 06:43:32;;;;;;;;;;;8.50;92.60;;;;;;5044064;28;19925;-71
2023/10/20 06:46:01;;;;;;;;;;;8.70;93.80;;;;;;5046868;28;20300;-65
2023/10/20 06:48:28;;;;;;;;;;;9.10;93.30;;;;;;5030111;28;19921;-65
2023/10/20 06:50:53;;;;;;;;;;;9.20;93.20;;;;;;5029499;28;19928;-65
2023/10/20 06:53:19;;;;;;;;;;;9.30;93.00;;;;;;5038885;28;20507;-67
2023/10/20 06:55:45;;;;;;;;;;;9.20;91.80;;;;;;5045025;28;19932;-68
2023/10/20 06:58:10;;;;;;;;;;;9.20;92.20;;;;;;5033989;28;19932;-72
2023/10/20 07:00:36;;;;;;;;;;;9.50;92.40;;;;;;5049605;28;19999;-72
2023/10/20 07:03:02;;;;;;;;;;;9.70;92.70;;;;;;5043669;28;20333;-73
2023/10/20 07:05:27;;;;;;;;;;;9.80;91.30;;;;;;5047008;28;20397;-72
2023/10/20 07:07:53;;;;;;;;;;;9.80;90.90;;;;;;5039940;28;20019;-72
2023/10/20 07:10:21;;;;;;;;;;;9.80;90.10;;;;;;5029598;28;19925;-72
2023/10/20 07:12:47;;;;;;;;;;;9.70;89.30;;;;;;5029114;28;19932;-67
2023/10/20 07:15:12;;;;;;;;;;;9.70;89.20;;;;;;5048800;28;19924;-67
2023/10/20 07:17:38;;;;;;;;;;;9.50;89.00;;;;;;5047873;28;19921;-67
2023/10/20 07:20:05;;;;;;;;;;;9.30;89.00;;;;;;5034803;28;19921;-67
2023/10/20 07:22:31;;;;;;;;;;;9.10;89.50;;;;;;5049067;28;20964;-66
2023/10/20 07:24:57;;;;;;;;;;;9.00;89.80;;;;;;5048567;28;20344;-67
2023/10/20 07:27:23;;;;;;;;;;;9.00;90.30;;;;;;5048204;28;19921;-66
2023/10/20 07:29:48;;;;;;;;;;;8.90;90.20;;;;;;5048246;28;19924;-66
2023/10/20 07:32:13;;;;;;;;;;;8.90;90.40;;;;;;5040458;28;19921;-67
2023/10/20 07:34:39;;;;;;;;;;;8.90;90.40;;;;;;5028917;28;19925;-66
2023/10/20 07:37:06;;;;;;;;;;;8.90;90.50;;;;;;5027435;28;19921;-68
2023/10/20 07:39:33;;;;;;;;;;;8.80;90.80;;;;;;5043745;28;20007;-67
2023/10/20 07:41:59;;;;;;;;;;;8.80;91.00;;;;;;5047160;28;19920;-67
2023/10/20 07:44:24;;;;;;;;;;;8.70;91.10;;;;;;5035224;28;19944;-67
2023/10/20 07:46:50;;;;;;;;;;;8.70;91.20;;;;;;5048445;28;19943;-67
2023/10/20 07:49:16;;;;;;;;;;;8.70;91.30;;;;;;5022040;28;19925;-68
2023/10/20 07:51:41;;;;;;;;;;;8.60;91.40;;;;;;5039340;28;19937;-67
2023/10/20 07:54:10;;;;;;;;;;;8.70;91.50;;;;;;5032000;28;19936;-67
2023/10/20 07:56:35;;;;;;;;;;;8.70;91.40;;;;;;5037261;28;19978;-67
2023/10/20 07:59:01;;;;;;;;;;;8.60;91.40;;;;;;5039316;28;20467;-67
2023/10/20 08:01:27;;;;;;;;;;;8.60;91.50;;;;;;5047771;28;19925;-68
2023/10/20 08:03:53;;;;;;;;;;;8.60;91.60;;;;;;5046878;28;20428;-67
2023/10/20 08:06:19;;;;;;;;;;;8.60;91.50;;;;;;5047993;28;20293;-67
2023/10/20 08:08:45;;;;;;;;;;;8.60;91.50;;;;;;5032034;28;19928;-67
2023/10/20 08:11:11;;;;;;;;;;;8.60;91.60;;;;;;5034048;28;19920;-67
2023/10/20 08:13:37;;;;;;;;;;;8.60;91.60;;;;;;5048411;28;20571;-67
2023/10/20 08:16:03;;;;;;;;;;;8.60;91.60;;;;;;5048394;28;19943;-67
2023/10/20 08:18:33;;;;;;;;;;;8.60;91.60;;;;;;5039950;28;19932;-67
2023/10/20 08:21:02;;;;;;;;;;;8.60;91.50;;;;;;5031021;28;19921;-66
2023/10/20 08:23:27;;;;;;;;;;;8.50;91.60;;;;;;5051708;28;19956;-66
2023/10/20 08:25:53;;;;;;;;;;;8.50;91.50;;;;;;5049847;28;20426;-66
2023/10/20 08:28:18;;;;;;;;;;;8.60;91.50;;;;;;5036886;28;19921;-67
2023/10/20 08:30:44;;;;;;;;;;;8.50;91.50;;;;;;5040391;28;20297;-67
2023/10/20 08:33:09;;;;;;;;;;;8.50;91.40;;;;;;5043926;28;20051;-67
2023/10/20 08:35:37;;;;;;;;;;;8.50;91.50;;;;;;5044816;28;19932;-67
2023/10/20 08:38:03;;;;;;;;;;;8.40;91.60;;;;;;5041276;28;19924;-67
2023/10/20 08:40:33;;;;;;;;;;;8.40;91.50;;;;;;5042438;28;19928;-68
2023/10/20 08:43:02;;;;;;;;;;;8.40;91.70;;;;;;5040523;28;19935;-67
2023/10/20 08:45:31;;;;;;;;;;;8.50;91.80;;;;;;5050697;28;19978;-67
2023/10/20 08:47:57;;;;;;;;;;;8.40;91.60;;;;;;5038211;28;19974;-68
2023/10/20 08:50:23;;;;;;;;;;;8.40;91.60;;;;;;5030423;28;19921;-67
2023/10/20 08:52:51;;;;;;;;;;;8.40;91.60;;;;;;5031863;28;20373;-67
2023/10/20 08:55:16;;;;;;;;;;;8.40;91.60;;;;;;5031950;28;19936;-67
2023/10/20 08:57:42;;;;;;;;;;;8.50;91.60;;;;;;5031894;28;19921;-68
2023/10/20 09:00:08;;;;;;;;;;;8.40;91.50;;;;;;5031609;28;20460;-67
2023/10/20 09:02:37;;;;;;;;;;;8.50;91.60;;;;;;5031954;28;19925;-68
2023/10/20 09:05:03;;;;;;;;;;;8.50;91.50;;;;;;5040012;28;19935;-68
2023/10/20 09:07:31;;;;;;;;;;;8.40;91.50;;;;;;5046315;28;19933;-67
2023/10/20 09:09:56;;;;;;;;;;;8.60;92.10;;;;;;5043017;28;19935;-67
2023/10/20 09:12:22;;;;;;;;;;;8.70;91.60;;;;;;5039813;28;19924;-67
2023/10/20 09:14:47;;;;;;;;;;;8.60;91.20;;;;;;5047195;28;19931;-67
2023/10/20 09:17:20;;;;;;;;;;;8.60;91.20;;;;;;5053615;28;20683;-68
2023/10/20 09:19:45;;;;;;;;;;;8.50;91.20;;;;;;5047136;28;20010;-67
2023/10/20 09:22:11;;;;;;;;;;;8.50;91.20;;;;;;5038529;28;19975;-68
2023/10/20 09:24:37;;;;;;;;;;;8.50;91.30;;;;;;5046218;28;20015;-68
2023/10/20 09:27:02;;;;;;;;;;;8.50;91.30;;;;;;5045765;28;20009;-68
2023/10/20 09:29:29;;;;;;;;;;;8.40;91.20;;;;;;5049758;28;19931;-68
2023/10/20 09:31:58;;;;;;;;;;;8.40;91.20;;;;;;5035117;28;19961;-67
2023/10/20 09:34:23;;;;;;;;;;;8.40;91.20;;;;;;5032496;28;20660;-74
2023/10/20 09:36:51;;;;;;;;;;;8.60;92.10;;;;;;5065609;28;19920;-68
2023/10/20 09:39:21;;;;;;;;;;;8.70;91.50;;;;;;5047675;28;20384;-68
2023/10/20 09:41:50;;;;;;;;;;;8.60;90.80;;;;;;5035644;28;20323;-68
2023/10/20 09:44:34;;;;;;;;;;;8.80;91.40;;;;;;5043480;28;19963;-68
2023/10/20 09:47:22;;;;;;;;;;;8.80;91.00;;;;;;5049979;28;19920;-68
2023/10/20 09:49:48;;;;;;;;;;;8.70;90.70;;;;;;5048780;28;19928;-67
2023/10/20 09:52:15;;;;;;;;;;;8.60;90.50;;;;;;5047623;28;19924;-67
2023/10/20 09:54:41;;;;;;;;;;;8.50;90.50;;;;;;5048266;28;19991;-67
2023/10/20 09:57:06;;;;;;;;;;;8.40;90.60;;;;;;5038286;28;20301;-67
2023/10/20 09:59:32;;;;;;;;;;;8.40;90.70;;;;;;5050475;28;20438;-68
2023/10/20 10:02:01;;;;;;;;;;;8.40;90.70;;;;;;5037989;28;20282;-67
2023/10/20 10:04:36;;;;;;;;;;;8.30;90.80;;;;;;5035224;28;19920;-68
2023/10/20 10:07:05;;;;;;;;;;;8.30;90.90;;;;;;5034854;28;20039;-68
2023/10/20 10:09:37;;;;;;;;;;;8.20;90.90;;;;;;5012331;28;19921;-68
2023/10/20 10:12:07;;;;;;;;;;;8.20;91.00;;;;;;5030455;28;19972;-68
2023/10/20 10:14:33;;;;;;;;;;;8.10;91.20;;;;;;5030174;28;19925;-67
2023/10/20 10:17:01;;;;;;;;;;;8.10;91.10;;;;;;5029234;28;19928;-67
2023/10/20 10:19:27;;;;;;;;;;;8.20;91.10;;;;;;5029682;28;20300;-68
2023/10/20 10:21:59;;;;;;;;;;;8.20;91.20;;;;;;5031609;28;19954;-68
2023/10/20 10:24:25;;;;;;;;;;;8.20;91.20;;;;;;5049886;28;19925;-68
2023/10/20 10:26:55;;;;;;;;;;;8.10;91.10;;;;;;5049013;28;19920;-68
2023/10/20 10:29:39;;;;;;;;;;;8.10;91.40;;;;;;5049767;28;19931;-68
2023/10/20 10:32:12;;;;;;;;;;;8.10;91.40;;;;;;5049128;28;20015;-68
2023/10/20 10:34:41;;;;;;;;;;;8.10;91.40;;;;;;5049377;28;20347;-68
2023/10/20 10:37:08;;;;;;;;;;;8.20;91.20;;;;;;5050500;28;19925;-68
2023/10/20 10:39:33;;;;;;;;;;;8.10;91.30;;;;;;5049447;28;19925;-67
2023/10/20 10:42:02;;;;;;;;;;;8.20;91.40;;;;;;5048392;28;19921;-67
2023/10/20 10:44:35;;;;;;;;;;;8.10;91.10;;;;;;5029674;28;19921;-68
2023/10/20 10:47:04;;;;;;;;;;;8.10;91.20;;;;;;5029594;28;20324;-68
2023/10/20 10:49:33;;;;;;;;;;;8.00;91.30;;;;;;5030526;28;20332;-67
2023/10/20 10:52:08;;;;;;;;;;;8.10;91.50;;;;;;5048609;28;19920;-67
2023/10/20 10:54:34;;;;;;;;;;;8.10;91.50;;;;;;5047032;28;19931;-67
2023/10/20 10:57:01;;;;;;;;;;;8.10;91.10;;;;;;5035870;28;20003;-67
2023/10/20 10:59:27;;;;;;;;;;;8.10;91.50;;;;;;5041468;28;19924;-68
2023/10/20 11:01:52;;;;;;;;;;;8.00;91.50;;;;;;5028128;28;19925;-67
2023/10/20 11:04:18;;;;;;;;;;;8.00;91.50;;;;;;5038754;28;19924;-68
2023/10/20 11:06:44;;;;;;;;;;;8.00;91.40;;;;;;5040720;28;20373;-67
2023/10/20 11:09:10;;;;;;;;;;;8.00;91.60;;;;;;5029291;28;20366;-67
2023/10/20 11:11:39;;;;;;;;;;;8.00;91.50;;;;;;5029224;28;19924;-67
2023/10/20 11:14:05;;;;;;;;;;;8.00;91.60;;;;;;5029206;28;20416;-67
2023/10/20 11:16:33;;;;;;;;;;;8.00;91.60;;;;;;5029349;28;19944;-67
2023/10/20 11:19:01;;;;;;;;;;;8.00;91.70;;;;;;5029299;28;19983;-67
2023/10/20 11:21:27;;;;;;;;;;;8.00;91.70;;;;;;5028151;28;19924;-67
2023/10/20 11:23:56;;;;;;;;;;;8.00;91.60;;;;;;5028786;28;19961;-67
2023/10/20 11:26:24;;;;;;;;;;;8.10;91.70;;;;;;5029121;28;20007;-67
2023/10/20 11:28:50;;;;;;;;;;;8.00;91.50;;;;;;5029107;28;20657;-68
2023/10/20 11:31:16;;;;;;;;;;;8.00;91.50;;;;;;5031354;28;20324;-67
2023/10/20 11:33:41;;;;;;;;;;;8.00;91.40;;;;;;5035795;28;19921;-67
2023/10/20 11:36:07;;;;;;;;;;;8.10;91.30;;;;;;5048922;28;20348;-67
2023/10/20 11:38:32;;;;;;;;;;;8.00;91.30;;;;;;5035624;28;19974;-68
2023/10/20 11:40:59;;;;;;;;;;;8.10;92.10;;;;;;5036922;28;19944;-67
2023/10/20 11:43:24;;;;;;;;;;;8.20;91.50;;;;;;5039414;28;19920;-67
2023/10/20 11:45:50;;;;;;;;;;;8.20;91.40;;;;;;5048429;28;19932;-67
2023/10/20 11:48:16;;;;;;;;;;;8.20;91.10;;;;;;5044885;28;19955;-68
2023/10/20 11:50:41;;;;;;;;;;;8.10;91.00;;;;;;5035132;28;19921;-67
2023/10/20 11:53:07;;;;;;;;;;;8.10;91.00;;;;;;5032313;28;19921;-68
2023/10/20 11:55:32;;;;;;;;;;;8.10;91.00;;;;;;5038057;28;19921;-67
2023/10/20 11:57:58;;;;;;;;;;;8.10;90.90;;;;;;5052816;28;20011;-68
2023/10/20 12:00:23;;;;;;;;;;;8.10;90.90;;;;;;5052956;28;19921;-68
2023/10/20 12:02:49;;;;;;;;;;;8.20;90.90;;;;;;5051649;28;19920;-67
2023/10/20 12:05:14;;;;;;;;;;;8.10;90.90;;;;;;5047874;28;19920;-67
2023/10/20 12:07:40;;;;;;;;;;;8.20;90.90;;;;;;5049102;28;19928;-67
2023/10/20 12:10:06;;;;;;;;;;;8.10;91.00;;;;;;5052661;28;19920;-68
2023/10/20 12:12:32;;;;;;;;;;;8.10;91.00;;;;;;5036960;28;19921;-68
2023/10/20 12:14:57;;;;;;;;;;;8.10;90.80;;;;;;5036802;28;19928;-68
2023/10/20 12:17:24;;;;;;;;;;;8.00;91.10;;;;;;5036998;28;19920;-66
2023/10/20 12:19:50;;;;;;;;;;;8.00;90.70;;;;;;5050616;28;20007;-65
2023/10/20 12:22:16;;;;;;;;;;;7.90;91.00;;;;;;5041418;28;19972;-68
2023/10/20 12:24:41;;;;;;;;;;;7.90;91.30;;;;;;5044050;28;19972;-67
2023/10/20 12:27:08;;;;;;;;;;;8.00;91.10;;;;;;5047491;28;20024;-68
2023/10/20 12:29:33;;;;;;;;;;;7.90;91.10;;;;;;5042457;28;20011;-68
2023/10/20 12:31:59;;;;;;;;;;;8.20;91.80;;;;;;5031550;28;20039;-68
2023/10/20 12:34:25;;;;;;;;;;;8.20;91.40;;;;;;5037045;28;20340;-67
2023/10/20 12:36:50;;;;;;;;;;;8.10;91.30;;;;;;5052102;28;19953;-67
2023/10/20 12:39:17;;;;;;;;;;;8.10;91.10;;;;;;5046975;28;19925;-68
2023/10/20 12:41:43;;;;;;;;;;;8.00;91.10;;;;;;5032176;28;20670;-68
2023/10/20 12:44:10;;;;;;;;;;;8.10;91.00;;;;;;5032156;28;19921;-67
2023/10/20 12:46:36;;;;;;;;;;;8.10;91.00;;;;;;5032962;28;19921;-67
2023/10/20 12:49:02;;;;;;;;;;;8.00;91.00;;;;;;5051019;28;19921;-67
2023/10/20 12:51:27;;;;;;;;;;;7.90;91.00;;;;;;5033732;28;19925;-67
2023/10/20 12:53:52;;;;;;;;;;;8.00;91.10;;;;;;5051177;28;20237;-67
2023/10/20 12:56:18;;;;;;;;;;;7.90;90.80;;;;;;5049867;28;19921;-71
2023/10/20 12:58:44;;;;;;;;;;;7.90;91.10;;;;;;5045054;28;19921;-67
2023/10/20 13:01:09;;;;;;;;;;;7.90;91.00;;;;;;5043705;28;20011;-68
2023/10/20 13:03:36;;;;;;;;;;;7.90;90.80;;;;;;5047238;28;19920;-67
2023/10/20 13:06:01;;;;;;;;;;;7.90;91.00;;;;;;5046889;28;19920;-68
2023/10/20 13:08:27;;;;;;;;;;;7.80;91.10;;;;;;5037206;28;19928;-67
2023/10/20 13:10:53;;;;;;;;;;;7.90;91.10;;;;;;5031569;28;19921;-68
2023/10/20 13:13:18;;;;;;;;;;;7.90;91.00;;;;;;5034368;28;19933;-68
2023/10/20 13:15:45;;;;;;;;;;;7.90;91.00;;;;;;5045240;28;20058;-68
2023/10/20 13:18:15;;;;;;;;;;;7.90;91.10;;;;;;5043315;28;19928;-67
2023/10/20 13:20:40;;;;;;;;;;;7.90;91.00;;;;;;5051061;28;20396;-67
2023/10/20 13:23:06;;;;;;;;;;;7.80;91.10;;;;;;5049560;28;19925;-67
2023/10/20 13:25:32;;;;;;;;;;;7.90;91.10;;;;;;5040737;28;19947;-67
2023/10/20 13:27:59;;;;;;;;;;;7.90;91.10;;;;;;5034849;28;19929;-67
2023/10/20 13:30:25;;;;;;;;;;;7.90;91.10;;;;;;5036288;28;19921;-67
2023/10/20 13:32:50;;;;;;;;;;;7.80;91.20;;;;;;5029429;28;20385;-68
2023/10/20 13:35:16;;;;;;;;;;;7.90;91.20;;;;;;5043545;28;20000;-67
2023/10/20 13:37:42;;;;;;;;;;;7.90;91.20;;;;;;5048751;28;19955;-67
2023/10/20 13:40:09;;;;;;;;;;;7.80;91.30;;;;;;5038763;28;19921;-67
2023/10/20 13:42:35;;;;;;;;;;;7.80;91.20;;;;;;5029484;28;20442;-68
2023/10/20 13:45:00;;;;;;;;;;;7.90;91.30;;;;;;5041462;28;20050;-69
2023/10/20 13:47:26;;;;;;;;;;;7.90;91.20;;;;;;5034924;28;20030;-68
2023/10/20 13:49:51;;;;;;;;;;;7.80;91.30;;;;;;5039053;28;20112;-68
2023/10/20 13:52:17;;;;;;;;;;;7.80;91.30;;;;;;5037276;28;19925;-68
2023/10/20 13:54:43;;;;;;;;;;;7.80;91.30;;;;;;5037483;28;20331;-68
2023/10/20 13:57:08;;;;;;;;;;;7.90;91.10;;;;;;5050198;28;19940;-68
2023/10/20 13:59:34;;;;;;;;;;;7.90;91.00;;;;;;5045557;28;19924;-68
2023/10/20 14:01:59;;;;;;;;;;;7.90;91.00;;;;;;5043928;28;20297;-68
2023/10/20 14:04:25;;;;;;;;;;;7.80;91.20;;;;;;5040133;28;19929;-68
2023/10/20 14:06:51;;;;;;;;;;;7.80;91.20;;;;;;5037005;28;19920;-67
2023/10/20 14:09:17;;;;;;;;;;;7.90;91.00;;;;;;5030368;28;20003;-68
2023/10/20 14:11:43;;;;;;;;;;;7.80;91.20;;;;;;5050932;28;20008;-68
2023/10/20 14:14:08;;;;;;;;;;;7.80;91.20;;;;;;5045085;28;20617;-68
2023/10/20 14:16:34;;;;;;;;;;;7.70;91.20;;;;;;5052298;28;19925;-68
2023/10/20 14:18:59;;;;;;;;;;;8.10;91.80;;;;;;5029732;28;19932;-68
2023/10/20 14:21:25;;;;;;;;;;;8.10;91.40;;;;;;5029712;28;20338;-68
2023/10/20 14:23:50;;;;;;;;;;;8.00;91.20;;;;;;5030469;28;19924;-68
2023/10/20 14:26:16;;;;;;;;;;;7.90;91.00;;;;;;5029719;28;20683;-68
2023/10/20 14:28:41;;;;;;;;;;;7.90;91.10;;;;;;5029885;28;19948;-68
2023/10/20 14:31:07;;;;;;;;;;;7.80;91.00;;;;;;5030323;28;19925;-67
2023/10/20 14:33:33;;;;;;;;;;;7.90;91.00;;;;;;5029535;28;20420;-67
2023/10/20 14:35:59;;;;;;;;;;;7.80;91.00;;;;;;5030036;28;19925;-68
2023/10/20 14:38:25;;;;;;;;;;;7.80;91.00;;;;;;5029467;28;20444;-67
2023/10/20 14:41:04;;;;;;;;;;;7.80;91.00;;;;;;5030060;28;19921;-67
2023/10/20 14:43:32;;;;;;;;;;;7.80;91.20;;;;;;5029557;28;19932;-67
2023/10/20 14:45:58;;;;;;;;;;;7.80;91.20;;;;;;5028923;28;20030;-66
2023/10/20 14:48:24;;;;;;;;;;;7.70;91.30;;;;;;5044410;28;19921;-66
2023/10/20 14:50:50;;;;;;;;;;;7.60;91.30;;;;;;5049549;28;20270;-66
2023/10/20 14:53:16;;;;;;;;;;;7.60;91.40;;;;;;5026981;28;20549;-67
2023/10/20 14:55:41;;;;;;;;;;;7.60;91.50;;;;;;5029994;28;19925;-67
2023/10/20 14:58:07;;;;;;;;;;;7.70;91.40;;;;;;5029272;28;19925;-67
2023/10/20 15:00:32;;;;;;;;;;;7.60;91.40;;;;;;5037655;28;19928;-66
2023/10/20 15:02:58;;;;;;;;;;;7.60;91.50;;;;;;5048944;28;19960;-66